sensor_id;sensor_type;location;lat;lon;timestamp;P1;durP1;ratioP1;P2;durP2;ratioP2
13872;SDS011;7006;51.494;11.964;2023-08-07T00:00:05;4.83;;;3.50;;
13872;SDS011;7006;51.494;11.964;2023-08-07T00:02:34;4.97;;;3.80;;
13872;SDS011;7006;51.494;11.964;2023-08-07T00:05:02;5.33;;;3.80;;
13872;SDS011;7006;51.494;11.964;2023-08-07T00:07:30;5.60;;;4.30;;
13872;SDS011;7006;51.494;11.964;2023-08-07T00:09:58;4.40;;;3.57;;
13872;SDS011;7006;51.494;11.964;2023-08-07T00:12:30;6.53;;;3.93;;
13872;SDS011;7006;51.494;11.964;2023-08-07T00:14:59;3.97;;;3.57;;
13872;SDS011;7006;51.494;11.964;2023-08-07T00:17:27;4.57;;;3.53;;
13872;SDS011;7006;51.494;11.964;2023-08-07T00:19:55;4.90;;;3.93;;
13872;SDS011;7006;51.494;11.964;2023-08-07T00:22:23;5.93;;;4.30;;
13872;SDS011;7006;51.494;11.964;2023-08-07T00:24:51;4.50;;;4.00;;
13872;SDS011;7006;51.494;11.964;2023-08-07T00:27:19;4.20;;;3.80;;
13872;SDS011;7006;51.494;11.964;2023-08-07T00:29:50;5.67;;;5.07;;
13872;SDS011;7006;51.494;11.964;2023-08-07T00:32:18;8.07;;;5.60;;
13872;SDS011;7006;51.494;11.964;2023-08-07T00:34:46;6.30;;;5.37;;
13872;SDS011;7006;51.494;11.964;2023-08-07T00:37:15;5.83;;;5.13;;
13872;SDS011;7006;51.494;11.964;2023-08-07T00:39:43;6.10;;;4.93;;
13872;SDS011;7006;51.494;11.964;2023-08-07T00:42:11;5.07;;;4.57;;
13872;SDS011;7006;51.494;11.964;2023-08-07T00:44:39;7.60;;;5.60;;
13872;SDS011;7006;51.494;11.964;2023-08-07T00:47:09;6.67;;;6.03;;
13872;SDS011;7006;51.494;11.964;2023-08-07T00:49:38;7.00;;;5.80;;
13872;SDS011;7006;51.494;11.964;2023-08-07T00:52:07;6.80;;;6.10;;
13872;SDS011;7006;51.494;11.964;2023-08-07T00:54:35;8.10;;;7.30;;
13872;SDS011;7006;51.494;11.964;2023-08-07T00:57:05;9.40;;;7.10;;
13872;SDS011;7006;51.494;11.964;2023-08-07T00:59:35;12.13;;;8.17;;
13872;SDS011;7006;51.494;11.964;2023-08-07T01:02:03;9.87;;;7.60;;
13872;SDS011;7006;51.494;11.964;2023-08-07T01:04:34;10.73;;;8.37;;
13872;SDS011;7006;51.494;11.964;2023-08-07T01:07:02;10.20;;;8.80;;
13872;SDS011;7006;51.494;11.964;2023-08-07T01:09:30;10.73;;;8.70;;
13872;SDS011;7006;51.494;11.964;2023-08-07T01:12:01;9.40;;;8.50;;
13872;SDS011;7006;51.494;11.964;2023-08-07T01:14:32;9.70;;;8.70;;
13872;SDS011;7006;51.494;11.964;2023-08-07T01:17:05;12.60;;;9.13;;
13872;SDS011;7006;51.494;11.964;2023-08-07T01:19:36;10.80;;;8.40;;
13872;SDS011;7006;51.494;11.964;2023-08-07T01:22:08;11.30;;;9.23;;
13872;SDS011;7006;51.494;11.964;2023-08-07T01:24:37;10.10;;;8.50;;
13872;SDS011;7006;51.494;11.964;2023-08-07T01:27:09;9.37;;;8.37;;
13872;SDS011;7006;51.494;11.964;2023-08-07T01:29:40;9.50;;;7.77;;
13872;SDS011;7006;51.494;11.964;2023-08-07T01:32:10;9.87;;;8.87;;
13872;SDS011;7006;51.494;11.964;2023-08-07T01:34:41;12.10;;;8.80;;
13872;SDS011;7006;51.494;11.964;2023-08-07T01:37:12;11.03;;;8.40;;
13872;SDS011;7006;51.494;11.964;2023-08-07T01:39:41;11.20;;;8.77;;
13872;SDS011;7006;51.494;11.964;2023-08-07T01:42:09;11.33;;;8.70;;
13872;SDS011;7006;51.494;11.964;2023-08-07T01:44:38;10.30;;;9.00;;
13872;SDS011;7006;51.494;11.964;2023-08-07T01:47:06;11.70;;;8.53;;
13872;SDS011;7006;51.494;11.964;2023-08-07T01:49:34;11.00;;;9.03;;
13872;SDS011;7006;51.494;11.964;2023-08-07T01:52:04;9.57;;;8.00;;
13872;SDS011;7006;51.494;11.964;2023-08-07T01:54:34;9.90;;;8.90;;
13872;SDS011;7006;51.494;11.964;2023-08-07T01:57:03;10.90;;;8.83;;
13872;SDS011;7006;51.494;11.964;2023-08-07T01:59:31;10.80;;;8.37;;
13872;SDS011;7006;51.494;11.964;2023-08-07T02:01:59;10.50;;;8.80;;
13872;SDS011;7006;51.494;11.964;2023-08-07T02:04:27;11.93;;;8.80;;
13872;SDS011;7006;51.494;11.964;2023-08-07T02:06:55;9.83;;;8.03;;
13872;SDS011;7006;51.494;11.964;2023-08-07T02:09:23;10.33;;;7.97;;
13872;SDS011;7006;51.494;11.964;2023-08-07T02:11:54;10.20;;;8.10;;
13872;SDS011;7006;51.494;11.964;2023-08-07T02:14:22;8.10;;;7.10;;
13872;SDS011;7006;51.494;11.964;2023-08-07T02:16:51;7.10;;;5.23;;
13872;SDS011;7006;51.494;11.964;2023-08-07T02:19:19;7.60;;;4.70;;
13872;SDS011;7006;51.494;11.964;2023-08-07T02:21:47;7.00;;;4.80;;
13872;SDS011;7006;51.494;11.964;2023-08-07T02:24:15;6.03;;;4.70;;
13872;SDS011;7006;51.494;11.964;2023-08-07T02:26:43;5.57;;;4.20;;
13872;SDS011;7006;51.494;11.964;2023-08-07T02:29:13;4.80;;;4.30;;
13872;SDS011;7006;51.494;11.964;2023-08-07T02:31:42;6.60;;;4.10;;
13872;SDS011;7006;51.494;11.964;2023-08-07T02:34:10;5.30;;;4.20;;
13872;SDS011;7006;51.494;11.964;2023-08-07T02:36:38;7.60;;;4.30;;
13872;SDS011;7006;51.494;11.964;2023-08-07T02:39:06;4.83;;;3.83;;
13872;SDS011;7006;51.494;11.964;2023-08-07T02:41:34;5.77;;;4.30;;
13872;SDS011;7006;51.494;11.964;2023-08-07T02:44:02;6.07;;;4.70;;
13872;SDS011;7006;51.494;11.964;2023-08-07T02:46:33;6.13;;;4.40;;
13872;SDS011;7006;51.494;11.964;2023-08-07T02:49:01;8.83;;;5.83;;
13872;SDS011;7006;51.494;11.964;2023-08-07T02:51:30;5.23;;;4.00;;
13872;SDS011;7006;51.494;11.964;2023-08-07T02:53:58;5.10;;;4.33;;
13872;SDS011;7006;51.494;11.964;2023-08-07T02:56:26;7.30;;;4.60;;
13872;SDS011;7006;51.494;11.964;2023-08-07T02:58:54;7.23;;;5.10;;
13872;SDS011;7006;51.494;11.964;2023-08-07T03:01:23;6.63;;;5.00;;
13872;SDS011;7006;51.494;11.964;2023-08-07T03:03:55;6.07;;;4.70;;
13872;SDS011;7006;51.494;11.964;2023-08-07T03:06:23;4.97;;;4.33;;
13872;SDS011;7006;51.494;11.964;2023-08-07T03:08:51;5.97;;;5.20;;
13872;SDS011;7006;51.494;11.964;2023-08-07T03:11:19;8.17;;;4.80;;
13872;SDS011;7006;51.494;11.964;2023-08-07T03:13:47;6.03;;;4.83;;
13872;SDS011;7006;51.494;11.964;2023-08-07T03:16:16;6.50;;;4.83;;
13872;SDS011;7006;51.494;11.964;2023-08-07T03:18:44;7.27;;;5.77;;
13872;SDS011;7006;51.494;11.964;2023-08-07T03:21:15;8.10;;;4.90;;
13872;SDS011;7006;51.494;11.964;2023-08-07T03:23:43;6.17;;;5.00;;
13872;SDS011;7006;51.494;11.964;2023-08-07T03:26:12;7.13;;;5.43;;
13872;SDS011;7006;51.494;11.964;2023-08-07T03:28:40;5.90;;;4.83;;
13872;SDS011;7006;51.494;11.964;2023-08-07T03:31:11;5.80;;;4.57;;
13872;SDS011;7006;51.494;11.964;2023-08-07T03:33:39;5.43;;;4.87;;
13872;SDS011;7006;51.494;11.964;2023-08-07T03:36:07;5.23;;;4.73;;
13872;SDS011;7006;51.494;11.964;2023-08-07T03:38:38;5.13;;;4.63;;
13872;SDS011;7006;51.494;11.964;2023-08-07T03:41:06;7.00;;;4.70;;
13872;SDS011;7006;51.494;11.964;2023-08-07T03:43:34;5.57;;;4.03;;
13872;SDS011;7006;51.494;11.964;2023-08-07T03:46:02;5.47;;;4.43;;
13872;SDS011;7006;51.494;11.964;2023-08-07T03:48:30;5.70;;;4.60;;
13872;SDS011;7006;51.494;11.964;2023-08-07T03:51:02;5.03;;;4.27;;
13872;SDS011;7006;51.494;11.964;2023-08-07T03:53:30;5.13;;;4.17;;
13872;SDS011;7006;51.494;11.964;2023-08-07T03:56:01;7.10;;;4.53;;
13872;SDS011;7006;51.494;11.964;2023-08-07T03:58:29;6.03;;;4.90;;
13872;SDS011;7006;51.494;11.964;2023-08-07T04:00:57;7.10;;;5.03;;
13872;SDS011;7006;51.494;11.964;2023-08-07T04:03:25;8.20;;;5.10;;
13872;SDS011;7006;51.494;11.964;2023-08-07T04:05:54;6.33;;;5.60;;
13872;SDS011;7006;51.494;11.964;2023-08-07T04:08:22;6.07;;;5.13;;
13872;SDS011;7006;51.494;11.964;2023-08-07T04:11:03;5.70;;;5.10;;
13872;SDS011;7006;51.494;11.964;2023-08-07T04:13:32;8.80;;;5.13;;
13872;SDS011;7006;51.494;11.964;2023-08-07T04:16:00;8.73;;;4.53;;
13872;SDS011;7006;51.494;11.964;2023-08-07T04:18:29;6.30;;;4.83;;
13872;SDS011;7006;51.494;11.964;2023-08-07T04:20:58;5.80;;;4.60;;
13872;SDS011;7006;51.494;11.964;2023-08-07T04:23:27;5.13;;;4.47;;
13872;SDS011;7006;51.494;11.964;2023-08-07T04:25:56;6.67;;;4.37;;
13872;SDS011;7006;51.494;11.964;2023-08-07T04:28:27;6.70;;;4.37;;
13872;SDS011;7006;51.494;11.964;2023-08-07T04:30:55;5.87;;;4.70;;
13872;SDS011;7006;51.494;11.964;2023-08-07T04:33:23;5.93;;;4.77;;
13872;SDS011;7006;51.494;11.964;2023-08-07T04:35:51;5.30;;;4.13;;
13872;SDS011;7006;51.494;11.964;2023-08-07T04:38:19;4.13;;;3.60;;
13872;SDS011;7006;51.494;11.964;2023-08-07T04:40:47;3.90;;;3.50;;
13872;SDS011;7006;51.494;11.964;2023-08-07T04:43:16;4.80;;;3.70;;
13872;SDS011;7006;51.494;11.964;2023-08-07T04:45:47;4.97;;;3.70;;
13872;SDS011;7006;51.494;11.964;2023-08-07T04:48:15;5.90;;;3.80;;
13872;SDS011;7006;51.494;11.964;2023-08-07T04:50:45;3.70;;;2.90;;
13872;SDS011;7006;51.494;11.964;2023-08-07T04:53:15;4.50;;;3.60;;
13872;SDS011;7006;51.494;11.964;2023-08-07T04:55:43;3.47;;;2.93;;
13872;SDS011;7006;51.494;11.964;2023-08-07T04:58:11;4.70;;;3.20;;
13872;SDS011;7006;51.494;11.964;2023-08-07T05:00:39;5.03;;;3.70;;
13872;SDS011;7006;51.494;11.964;2023-08-07T05:03:10;3.50;;;2.80;;
13872;SDS011;7006;51.494;11.964;2023-08-07T05:05:38;4.33;;;2.50;;
13872;SDS011;7006;51.494;11.964;2023-08-07T05:08:06;4.67;;;2.73;;
13872;SDS011;7006;51.494;11.964;2023-08-07T05:10:34;3.80;;;2.40;;
13872;SDS011;7006;51.494;11.964;2023-08-07T05:13:02;3.17;;;2.33;;
13872;SDS011;7006;51.494;11.964;2023-08-07T05:15:30;4.63;;;3.00;;
13872;SDS011;7006;51.494;11.964;2023-08-07T05:17:58;5.77;;;3.13;;
13872;SDS011;7006;51.494;11.964;2023-08-07T05:20:29;4.57;;;2.57;;
13872;SDS011;7006;51.494;11.964;2023-08-07T05:22:57;7.20;;;2.87;;
13872;SDS011;7006;51.494;11.964;2023-08-07T05:25:25;3.23;;;2.67;;
13872;SDS011;7006;51.494;11.964;2023-08-07T05:27:53;2.80;;;2.37;;
13872;SDS011;7006;51.494;11.964;2023-08-07T05:30:21;6.50;;;2.60;;
13872;SDS011;7006;51.494;11.964;2023-08-07T05:32:49;4.07;;;2.90;;
13872;SDS011;7006;51.494;11.964;2023-08-07T05:35:18;3.40;;;2.20;;
13872;SDS011;7006;51.494;11.964;2023-08-07T05:37:48;3.53;;;2.63;;
13872;SDS011;7006;51.494;11.964;2023-08-07T05:40:16;5.47;;;3.30;;
13872;SDS011;7006;51.494;11.964;2023-08-07T05:42:45;4.40;;;3.30;;
13872;SDS011;7006;51.494;11.964;2023-08-07T05:45:13;3.33;;;2.43;;
13872;SDS011;7006;51.494;11.964;2023-08-07T05:47:41;5.70;;;3.10;;
13872;SDS011;7006;51.494;11.964;2023-08-07T05:50:09;4.60;;;3.40;;
13872;SDS011;7006;51.494;11.964;2023-08-07T05:52:37;5.50;;;2.93;;
13872;SDS011;7006;51.494;11.964;2023-08-07T05:55:08;5.80;;;3.23;;
13872;SDS011;7006;51.494;11.964;2023-08-07T05:57:36;4.27;;;3.20;;
13872;SDS011;7006;51.494;11.964;2023-08-07T06:00:05;4.80;;;3.23;;
13872;SDS011;7006;51.494;11.964;2023-08-07T06:02:39;3.73;;;2.47;;
13872;SDS011;7006;51.494;11.964;2023-08-07T06:05:07;3.63;;;2.90;;
13872;SDS011;7006;51.494;11.964;2023-08-07T06:07:37;4.73;;;2.87;;
13872;SDS011;7006;51.494;11.964;2023-08-07T06:10:08;3.37;;;3.00;;
13872;SDS011;7006;51.494;11.964;2023-08-07T06:12:36;3.67;;;2.50;;
13872;SDS011;7006;51.494;11.964;2023-08-07T06:15:05;5.20;;;2.63;;
13872;SDS011;7006;51.494;11.964;2023-08-07T06:17:34;4.30;;;2.50;;
13872;SDS011;7006;51.494;11.964;2023-08-07T06:20:05;5.43;;;2.83;;
13872;SDS011;7006;51.494;11.964;2023-08-07T06:22:34;3.33;;;2.47;;
13872;SDS011;7006;51.494;11.964;2023-08-07T06:25:02;5.33;;;3.00;;
13872;SDS011;7006;51.494;11.964;2023-08-07T06:27:34;3.40;;;2.40;;
13872;SDS011;7006;51.494;11.964;2023-08-07T06:30:02;4.03;;;2.50;;
13872;SDS011;7006;51.494;11.964;2023-08-07T06:32:31;3.53;;;2.70;;
13872;SDS011;7006;51.494;11.964;2023-08-07T06:34:59;2.77;;;2.00;;
13872;SDS011;7006;51.494;11.964;2023-08-07T06:37:27;4.07;;;2.90;;
13872;SDS011;7006;51.494;11.964;2023-08-07T06:39:55;3.00;;;2.13;;
13872;SDS011;7006;51.494;11.964;2023-08-07T06:42:23;4.57;;;2.57;;
13872;SDS011;7006;51.494;11.964;2023-08-07T06:44:54;3.00;;;2.30;;
13872;SDS011;7006;51.494;11.964;2023-08-07T06:47:22;3.40;;;2.17;;
13872;SDS011;7006;51.494;11.964;2023-08-07T06:49:50;4.10;;;1.90;;
13872;SDS011;7006;51.494;11.964;2023-08-07T06:52:18;6.17;;;2.10;;
13872;SDS011;7006;51.494;11.964;2023-08-07T06:54:46;2.90;;;1.90;;
13872;SDS011;7006;51.494;11.964;2023-08-07T06:57:14;4.23;;;2.67;;
13872;SDS011;7006;51.494;11.964;2023-08-07T06:59:42;3.00;;;1.63;;
13872;SDS011;7006;51.494;11.964;2023-08-07T07:02:13;3.27;;;1.70;;
13872;SDS011;7006;51.494;11.964;2023-08-07T07:04:41;3.43;;;1.80;;
13872;SDS011;7006;51.494;11.964;2023-08-07T07:07:09;3.13;;;1.80;;
13872;SDS011;7006;51.494;11.964;2023-08-07T07:09:37;3.07;;;1.70;;
13872;SDS011;7006;51.494;11.964;2023-08-07T07:12:06;2.60;;;1.60;;
13872;SDS011;7006;51.494;11.964;2023-08-07T07:14:34;2.20;;;1.30;;
13872;SDS011;7006;51.494;11.964;2023-08-07T07:17:02;2.03;;;1.17;;
13872;SDS011;7006;51.494;11.964;2023-08-07T07:19:33;2.73;;;1.37;;
13872;SDS011;7006;51.494;11.964;2023-08-07T07:22:01;2.57;;;1.60;;
13872;SDS011;7006;51.494;11.964;2023-08-07T07:24:29;2.40;;;1.53;;
13872;SDS011;7006;51.494;11.964;2023-08-07T07:26:57;3.93;;;1.50;;
13872;SDS011;7006;51.494;11.964;2023-08-07T07:29:25;2.53;;;1.37;;
13872;SDS011;7006;51.494;11.964;2023-08-07T07:31:53;2.33;;;1.53;;
13872;SDS011;7006;51.494;11.964;2023-08-07T07:34:21;2.27;;;1.27;;
13872;SDS011;7006;51.494;11.964;2023-08-07T07:36:52;2.40;;;1.20;;
13872;SDS011;7006;51.494;11.964;2023-08-07T07:39:20;2.30;;;1.47;;
13872;SDS011;7006;51.494;11.964;2023-08-07T07:41:48;2.50;;;1.47;;
13872;SDS011;7006;51.494;11.964;2023-08-07T07:44:14;2.00;;;1.23;;
13872;SDS011;7006;51.494;11.964;2023-08-07T07:46:42;3.43;;;1.67;;
13872;SDS011;7006;51.494;11.964;2023-08-07T07:49:10;2.70;;;1.30;;
13872;SDS011;7006;51.494;11.964;2023-08-07T07:51:38;2.23;;;1.40;;
13872;SDS011;7006;51.494;11.964;2023-08-07T07:54:10;3.47;;;1.70;;
13872;SDS011;7006;51.494;11.964;2023-08-07T07:56:38;2.83;;;1.50;;
13872;SDS011;7006;51.494;11.964;2023-08-07T07:59:06;10.70;;;1.70;;
13872;SDS011;7006;51.494;11.964;2023-08-07T08:01:34;2.50;;;1.43;;
13872;SDS011;7006;51.494;11.964;2023-08-07T08:04:03;3.50;;;1.70;;
13872;SDS011;7006;51.494;11.964;2023-08-07T08:06:31;2.40;;;1.50;;
13872;SDS011;7006;51.494;11.964;2023-08-07T08:08:59;4.47;;;1.53;;
13872;SDS011;7006;51.494;11.964;2023-08-07T08:11:32;2.33;;;1.30;;
13872;SDS011;7006;51.494;11.964;2023-08-07T08:14:00;2.87;;;1.80;;
13872;SDS011;7006;51.494;11.964;2023-08-07T08:16:28;3.20;;;2.00;;
13872;SDS011;7006;51.494;11.964;2023-08-07T08:18:56;3.10;;;1.77;;
13872;SDS011;7006;51.494;11.964;2023-08-07T08:21:24;3.33;;;1.80;;
13872;SDS011;7006;51.494;11.964;2023-08-07T08:23:52;2.87;;;1.57;;
13872;SDS011;7006;51.494;11.964;2023-08-07T08:26:20;3.43;;;2.00;;
13872;SDS011;7006;51.494;11.964;2023-08-07T08:28:51;3.70;;;2.00;;
13872;SDS011;7006;51.494;11.964;2023-08-07T08:31:19;3.83;;;2.40;;
13872;SDS011;7006;51.494;11.964;2023-08-07T08:33:49;2.27;;;1.80;;
13872;SDS011;7006;51.494;11.964;2023-08-07T08:36:17;3.40;;;2.03;;
13872;SDS011;7006;51.494;11.964;2023-08-07T08:38:45;3.20;;;1.60;;
13872;SDS011;7006;51.494;11.964;2023-08-07T08:41:13;3.10;;;1.80;;
13872;SDS011;7006;51.494;11.964;2023-08-07T08:43:41;2.23;;;1.40;;
13872;SDS011;7006;51.494;11.964;2023-08-07T08:46:14;3.13;;;1.53;;
13872;SDS011;7006;51.494;11.964;2023-08-07T08:48:43;4.50;;;1.60;;
13872;SDS011;7006;51.494;11.964;2023-08-07T08:51:14;3.00;;;1.60;;
13872;SDS011;7006;51.494;11.964;2023-08-07T08:53:43;2.77;;;1.50;;
13872;SDS011;7006;51.494;11.964;2023-08-07T08:56:11;1.90;;;1.20;;
13872;SDS011;7006;51.494;11.964;2023-08-07T08:58:39;2.00;;;1.37;;
13872;SDS011;7006;51.494;11.964;2023-08-07T09:01:08;2.60;;;1.70;;
13872;SDS011;7006;51.494;11.964;2023-08-07T09:03:39;3.40;;;1.67;;
13872;SDS011;7006;51.494;11.964;2023-08-07T09:06:08;3.13;;;1.70;;
13872;SDS011;7006;51.494;11.964;2023-08-07T09:08:36;2.70;;;1.40;;
13872;SDS011;7006;51.494;11.964;2023-08-07T09:11:05;2.60;;;1.50;;
13872;SDS011;7006;51.494;11.964;2023-08-07T09:13:36;3.20;;;1.50;;
13872;SDS011;7006;51.494;11.964;2023-08-07T09:16:04;2.23;;;1.53;;
13872;SDS011;7006;51.494;11.964;2023-08-07T09:18:33;3.67;;;1.47;;
13872;SDS011;7006;51.494;11.964;2023-08-07T09:21:04;4.40;;;1.63;;
13872;SDS011;7006;51.494;11.964;2023-08-07T09:23:32;3.90;;;1.63;;
13872;SDS011;7006;51.494;11.964;2023-08-07T09:26:00;3.27;;;1.40;;
13872;SDS011;7006;51.494;11.964;2023-08-07T09:28:29;2.87;;;1.20;;
13872;SDS011;7006;51.494;11.964;2023-08-07T09:30:57;3.60;;;1.30;;
13872;SDS011;7006;51.494;11.964;2023-08-07T09:33:27;3.73;;;1.10;;
13872;SDS011;7006;51.494;11.964;2023-08-07T09:35:57;2.97;;;1.40;;
13872;SDS011;7006;51.494;11.964;2023-08-07T09:38:30;3.30;;;1.50;;
13872;SDS011;7006;51.494;11.964;2023-08-07T09:40:59;4.90;;;1.97;;
13872;SDS011;7006;51.494;11.964;2023-08-07T09:43:28;2.23;;;1.53;;
13872;SDS011;7006;51.494;11.964;2023-08-07T09:46:05;3.67;;;2.70;;
13872;SDS011;7006;51.494;11.964;2023-08-07T09:48:38;6.30;;;2.87;;
13872;SDS011;7006;51.494;11.964;2023-08-07T09:51:07;2.73;;;2.30;;
13872;SDS011;7006;51.494;11.964;2023-08-07T09:53:38;3.93;;;1.90;;
13872;SDS011;7006;51.494;11.964;2023-08-07T09:56:06;3.20;;;1.63;;
13872;SDS011;7006;51.494;11.964;2023-08-07T09:58:35;5.43;;;2.10;;
13872;SDS011;7006;51.494;11.964;2023-08-07T10:01:03;4.47;;;1.87;;
13872;SDS011;7006;51.494;11.964;2023-08-07T10:03:34;2.90;;;1.90;;
13872;SDS011;7006;51.494;11.964;2023-08-07T10:06:02;2.93;;;2.40;;
13872;SDS011;7006;51.494;11.964;2023-08-07T10:08:31;3.00;;;1.70;;
13872;SDS011;7006;51.494;11.964;2023-08-07T10:11:03;3.37;;;1.80;;
13872;SDS011;7006;51.494;11.964;2023-08-07T10:13:31;3.07;;;1.83;;
13872;SDS011;7006;51.494;11.964;2023-08-07T10:15:59;2.90;;;2.17;;
13872;SDS011;7006;51.494;11.964;2023-08-07T10:18:27;2.43;;;1.83;;
13872;SDS011;7006;51.494;11.964;2023-08-07T10:20:55;2.27;;;1.70;;
13872;SDS011;7006;51.494;11.964;2023-08-07T10:23:24;3.23;;;2.03;;
13872;SDS011;7006;51.494;11.964;2023-08-07T10:25:52;2.13;;;1.60;;
13872;SDS011;7006;51.494;11.964;2023-08-07T10:28:24;2.57;;;2.07;;
13872;SDS011;7006;51.494;11.964;2023-08-07T10:30:53;2.60;;;2.10;;
13872;SDS011;7006;51.494;11.964;2023-08-07T10:33:21;3.67;;;1.80;;
13872;SDS011;7006;51.494;11.964;2023-08-07T10:35:51;2.57;;;1.80;;
13872;SDS011;7006;51.494;11.964;2023-08-07T10:38:20;2.17;;;1.53;;
13872;SDS011;7006;51.494;11.964;2023-08-07T10:41:00;2.37;;;1.70;;
13872;SDS011;7006;51.494;11.964;2023-08-07T10:43:32;2.97;;;1.93;;
13872;SDS011;7006;51.494;11.964;2023-08-07T10:46:04;2.90;;;1.90;;
13872;SDS011;7006;51.494;11.964;2023-08-07T10:48:39;4.13;;;2.10;;
13872;SDS011;7006;51.494;11.964;2023-08-07T10:51:08;2.20;;;1.60;;
13872;SDS011;7006;51.494;11.964;2023-08-07T10:53:37;3.03;;;1.90;;
13872;SDS011;7006;51.494;11.964;2023-08-07T10:56:08;2.30;;;1.40;;
13872;SDS011;7006;51.494;11.964;2023-08-07T10:58:40;3.00;;;1.70;;
13872;SDS011;7006;51.494;11.964;2023-08-07T11:01:15;1.97;;;1.00;;
13872;SDS011;7006;51.494;11.964;2023-08-07T11:03:44;2.60;;;1.03;;
13872;SDS011;7006;51.494;11.964;2023-08-07T11:06:12;2.10;;;1.13;;
13872;SDS011;7006;51.494;11.964;2023-08-07T11:08:40;1.43;;;0.80;;
13872;SDS011;7006;51.494;11.964;2023-08-07T11:11:08;3.60;;;1.00;;
13872;SDS011;7006;51.494;11.964;2023-08-07T11:13:39;3.00;;;1.10;;
13872;SDS011;7006;51.494;11.964;2023-08-07T11:16:07;2.37;;;1.10;;
13872;SDS011;7006;51.494;11.964;2023-08-07T11:18:35;2.50;;;1.30;;
13872;SDS011;7006;51.494;11.964;2023-08-07T11:21:06;2.07;;;1.27;;
13872;SDS011;7006;51.494;11.964;2023-08-07T11:23:35;2.83;;;1.40;;
13872;SDS011;7006;51.494;11.964;2023-08-07T11:26:03;2.40;;;1.13;;
13872;SDS011;7006;51.494;11.964;2023-08-07T11:28:31;2.30;;;1.23;;
13872;SDS011;7006;51.494;11.964;2023-08-07T11:31:02;1.83;;;1.10;;
13872;SDS011;7006;51.494;11.964;2023-08-07T11:33:30;3.00;;;1.70;;
13872;SDS011;7006;51.494;11.964;2023-08-07T11:35:58;2.70;;;1.40;;
13872;SDS011;7006;51.494;11.964;2023-08-07T11:38:31;2.80;;;1.47;;
13872;SDS011;7006;51.494;11.964;2023-08-07T11:40:59;5.43;;;1.60;;
13872;SDS011;7006;51.494;11.964;2023-08-07T11:43:28;5.40;;;1.60;;
13872;SDS011;7006;51.494;11.964;2023-08-07T11:45:57;3.90;;;1.43;;
13872;SDS011;7006;51.494;11.964;2023-08-07T11:48:28;3.73;;;1.60;;
13872;SDS011;7006;51.494;11.964;2023-08-07T11:50:57;2.57;;;1.30;;
13872;SDS011;7006;51.494;11.964;2023-08-07T11:53:26;2.30;;;1.17;;
13872;SDS011;7006;51.494;11.964;2023-08-07T11:55:55;3.20;;;1.30;;
13872;SDS011;7006;51.494;11.964;2023-08-07T11:58:24;2.67;;;1.20;;
13872;SDS011;7006;51.494;11.964;2023-08-07T12:00:53;2.23;;;1.53;;
13872;SDS011;7006;51.494;11.964;2023-08-07T12:03:24;2.67;;;1.53;;
13872;SDS011;7006;51.494;11.964;2023-08-07T12:05:56;4.03;;;1.90;;
13872;SDS011;7006;51.494;11.964;2023-08-07T12:08:25;4.20;;;1.67;;
13872;SDS011;7006;51.494;11.964;2023-08-07T12:11:00;2.43;;;1.70;;
13872;SDS011;7006;51.494;11.964;2023-08-07T12:13:28;4.40;;;2.47;;
13872;SDS011;7006;51.494;11.964;2023-08-07T12:15:57;2.37;;;1.30;;
13872;SDS011;7006;51.494;11.964;2023-08-07T12:18:26;2.50;;;1.63;;
13872;SDS011;7006;51.494;11.964;2023-08-07T12:20:59;4.17;;;2.37;;
13872;SDS011;7006;51.494;11.964;2023-08-07T12:23:27;3.07;;;2.00;;
13872;SDS011;7006;51.494;11.964;2023-08-07T12:25:55;2.80;;;1.83;;
13872;SDS011;7006;51.494;11.964;2023-08-07T12:28:23;8.33;;;4.27;;
13872;SDS011;7006;51.494;11.964;2023-08-07T12:30:52;3.30;;;1.50;;
13872;SDS011;7006;51.494;11.964;2023-08-07T12:33:20;3.60;;;1.90;;
13872;SDS011;7006;51.494;11.964;2023-08-07T12:35:48;3.97;;;2.27;;
13872;SDS011;7006;51.494;11.964;2023-08-07T12:38:19;5.60;;;2.00;;
13872;SDS011;7006;51.494;11.964;2023-08-07T12:40:47;7.17;;;2.17;;
13872;SDS011;7006;51.494;11.964;2023-08-07T12:43:15;4.60;;;1.60;;
13872;SDS011;7006;51.494;11.964;2023-08-07T12:45:43;5.30;;;1.93;;
13872;SDS011;7006;51.494;11.964;2023-08-07T12:48:11;3.50;;;1.83;;
13872;SDS011;7006;51.494;11.964;2023-08-07T12:50:39;4.17;;;2.40;;
13872;SDS011;7006;51.494;11.964;2023-08-07T12:53:08;5.63;;;2.20;;
13872;SDS011;7006;51.494;11.964;2023-08-07T12:55:38;3.10;;;2.00;;
13872;SDS011;7006;51.494;11.964;2023-08-07T12:58:06;4.53;;;1.20;;
13872;SDS011;7006;51.494;11.964;2023-08-07T13:00:34;3.60;;;1.50;;
13872;SDS011;7006;51.494;11.964;2023-08-07T13:03:03;4.93;;;1.63;;
13872;SDS011;7006;51.494;11.964;2023-08-07T13:05:31;2.10;;;1.10;;
13872;SDS011;7006;51.494;11.964;2023-08-07T13:07:59;3.30;;;1.30;;
13872;SDS011;7006;51.494;11.964;2023-08-07T13:10:27;3.60;;;1.40;;
13872;SDS011;7006;51.494;11.964;2023-08-07T13:12:59;2.23;;;1.30;;
13872;SDS011;7006;51.494;11.964;2023-08-07T13:15:31;2.60;;;1.50;;
13872;SDS011;7006;51.494;11.964;2023-08-07T13:17:59;2.90;;;1.53;;
13872;SDS011;7006;51.494;11.964;2023-08-07T13:20:28;2.63;;;1.30;;
13872;SDS011;7006;51.494;11.964;2023-08-07T13:22:59;1.80;;;1.10;;
13872;SDS011;7006;51.494;11.964;2023-08-07T13:25:27;2.23;;;1.30;;
13872;SDS011;7006;51.494;11.964;2023-08-07T13:27:55;3.33;;;1.60;;
13872;SDS011;7006;51.494;11.964;2023-08-07T13:30:25;2.80;;;1.30;;
13872;SDS011;7006;51.494;11.964;2023-08-07T13:32:54;2.40;;;1.40;;
13872;SDS011;7006;51.494;11.964;2023-08-07T13:35:22;2.93;;;1.83;;
13872;SDS011;7006;51.494;11.964;2023-08-07T13:37:50;3.30;;;1.00;;
13872;SDS011;7006;51.494;11.964;2023-08-07T13:40:18;2.37;;;1.20;;
13872;SDS011;7006;51.494;11.964;2023-08-07T13:42:46;1.67;;;0.70;;
13872;SDS011;7006;51.494;11.964;2023-08-07T13:45:14;2.53;;;0.80;;
13872;SDS011;7006;51.494;11.964;2023-08-07T13:47:45;1.40;;;0.70;;
13872;SDS011;7006;51.494;11.964;2023-08-07T13:50:13;2.20;;;0.70;;
13872;SDS011;7006;51.494;11.964;2023-08-07T13:52:41;2.10;;;0.83;;
13872;SDS011;7006;51.494;11.964;2023-08-07T13:55:09;1.60;;;0.80;;
13872;SDS011;7006;51.494;11.964;2023-08-07T13:57:37;1.97;;;0.97;;
13872;SDS011;7006;51.494;11.964;2023-08-07T14:00:06;5.10;;;2.37;;
13872;SDS011;7006;51.494;11.964;2023-08-07T14:02:34;1.60;;;0.80;;
13872;SDS011;7006;51.494;11.964;2023-08-07T14:05:05;2.57;;;1.30;;
13872;SDS011;7006;51.494;11.964;2023-08-07T14:07:33;2.10;;;0.87;;
13872;SDS011;7006;51.494;11.964;2023-08-07T14:10:01;2.07;;;0.80;;
13872;SDS011;7006;51.494;11.964;2023-08-07T14:12:29;3.90;;;1.10;;
13872;SDS011;7006;51.494;11.964;2023-08-07T14:14:57;2.53;;;0.97;;
13872;SDS011;7006;51.494;11.964;2023-08-07T14:17:26;6.20;;;1.27;;
13872;SDS011;7006;51.494;11.964;2023-08-07T14:19:54;2.83;;;0.90;;
13872;SDS011;7006;51.494;11.964;2023-08-07T14:22:24;3.40;;;0.93;;
13872;SDS011;7006;51.494;11.964;2023-08-07T14:24:52;2.13;;;1.00;;
13872;SDS011;7006;51.494;11.964;2023-08-07T14:27:20;2.23;;;1.10;;
13872;SDS011;7006;51.494;11.964;2023-08-07T14:29:48;2.43;;;1.20;;
13872;SDS011;7006;51.494;11.964;2023-08-07T14:32:16;2.33;;;0.97;;
13872;SDS011;7006;51.494;11.964;2023-08-07T14:34:44;2.80;;;1.03;;
13872;SDS011;7006;51.494;11.964;2023-08-07T14:37:14;2.13;;;1.00;;
13872;SDS011;7006;51.494;11.964;2023-08-07T14:39:44;3.00;;;1.20;;
13872;SDS011;7006;51.494;11.964;2023-08-07T14:42:12;3.53;;;1.30;;
13872;SDS011;7006;51.494;11.964;2023-08-07T14:44:41;3.10;;;1.93;;
13872;SDS011;7006;51.494;11.964;2023-08-07T14:47:09;2.43;;;1.10;;
13872;SDS011;7006;51.494;11.964;2023-08-07T14:49:37;2.43;;;1.17;;
13872;SDS011;7006;51.494;11.964;2023-08-07T14:52:05;2.93;;;1.13;;
13872;SDS011;7006;51.494;11.964;2023-08-07T14:54:33;2.40;;;0.97;;
13872;SDS011;7006;51.494;11.964;2023-08-07T14:57:04;2.83;;;1.10;;